createdAt,value
2023-01-11T00:00:00.721Z,8.39
2023-01-11T00:04:02.327Z,8.40
2023-01-11T00:08:04.740Z,8.45
2023-01-11T00:12:06.390Z,8.42
2023-01-11T00:16:08.702Z,8.46
2023-01-11T00:20:11.179Z,8.49
2023-01-11T00:24:12.713Z,8.49
2023-01-11T00:28:14.236Z,8.49
2023-01-11T00:32:16.103Z,8.52
2023-01-11T00:36:17.743Z,8.50
2023-01-11T00:40:19.741Z,8.50
2023-01-11T00:44:40.002Z,8.52
2023-01-11T00:48:41.670Z,8.54
2023-01-11T00:52:43.183Z,8.54
2023-01-11T00:56:45.035Z,8.55
2023-01-11T01:00:46.567Z,8.57
2023-01-11T01:04:48.297Z,8.57
2023-01-11T01:08:49.921Z,8.60
2023-01-11T01:13:09.904Z,8.60
2023-01-11T01:17:11.381Z,8.64
2023-01-11T01:21:13.089Z,8.64
2023-01-11T01:25:15.134Z,8.65
2023-01-11T01:29:16.812Z,8.67
2023-01-11T01:33:18.398Z,8.67
2023-01-11T01:37:19.977Z,8.68
2023-01-11T01:41:21.506Z,8.70
2023-01-11T01:45:26.889Z,8.70
2023-01-11T01:49:28.464Z,8.70
2023-01-11T01:53:41.527Z,8.68
2023-01-11T01:57:44.709Z,8.65
2023-01-11T02:01:47.339Z,8.63
2023-01-11T02:05:51.955Z,8.58
2023-01-11T02:10:22.983Z,8.60
2023-01-11T02:14:25.470Z,8.60
2023-01-11T02:18:27.025Z,8.57
2023-01-11T02:22:40.342Z,8.57
2023-01-11T02:27:30.568Z,8.58
2023-01-11T02:31:45.931Z,8.57
2023-01-11T02:36:21.756Z,8.57
2023-01-11T02:41:01.444Z,8.58
2023-01-11T02:45:11.959Z,8.58
2023-01-11T02:49:59.012Z,8.60
2023-01-11T02:54:12.448Z,8.63
2023-01-11T02:58:16.484Z,8.64
2023-01-11T03:02:18.354Z,8.65
2023-01-11T03:06:34.588Z,8.67
2023-01-11T03:10:38.867Z,8.67
2023-01-11T03:15:03.973Z,8.70
2023-01-11T03:19:34.892Z,8.68
2023-01-11T03:24:01.966Z,8.70
2023-01-11T03:28:25.361Z,8.70
2023-01-11T03:32:35.076Z,8.68
2023-01-11T03:36:49.325Z,8.70
2023-01-11T03:40:55.223Z,8.70
2023-01-11T03:44:58.695Z,8.70
2023-01-11T03:49:10.530Z,8.70
2023-01-11T03:53:12.318Z,8.68
2023-01-11T03:57:21.325Z,8.71
2023-01-11T04:01:24.598Z,8.70
2023-01-11T04:05:26.519Z,8.75
2023-01-11T04:09:28.114Z,8.73
2023-01-11T04:13:29.697Z,8.73
2023-01-11T04:17:32.070Z,8.73
2023-01-11T04:21:33.619Z,8.75
2023-01-11T04:25:35.298Z,8.76
2023-01-11T04:29:36.934Z,8.78
2023-01-11T04:33:38.525Z,8.75
2023-01-11T04:37:40.133Z,8.78
2023-01-11T04:42:00.360Z,8.79
2023-01-11T04:46:02.100Z,8.79
2023-01-11T04:50:04.202Z,8.78
2023-01-11T04:54:06.400Z,8.76
2023-01-11T04:58:08.055Z,8.76
2023-01-11T05:02:09.647Z,8.75
2023-01-11T05:06:11.787Z,8.73
2023-01-11T05:10:13.480Z,8.75
2023-01-11T05:14:16.179Z,8.75
2023-01-11T05:18:17.966Z,8.75
2023-01-11T05:22:19.559Z,8.78
2023-01-11T05:26:23.881Z,8.78
2023-01-11T05:30:25.399Z,8.78
2023-01-11T05:34:27.066Z,8.80
2023-01-11T05:38:29.214Z,8.82
2023-01-11T05:42:30.737Z,8.80
2023-01-11T05:46:33.740Z,8.80
2023-01-11T05:50:35.373Z,8.80
2023-01-11T05:54:37.322Z,8.83
2023-01-11T05:58:38.917Z,8.83
2023-01-11T06:02:40.853Z,8.86
2023-01-11T06:06:42.587Z,8.86
2023-01-11T06:10:51.324Z,8.89
2023-01-11T06:14:52.850Z,8.93
2023-01-11T06:18:54.544Z,8.96
2023-01-11T06:22:56.054Z,8.96
2023-01-11T06:26:57.582Z,8.98
2023-01-11T06:30:59.913Z,9.00
2023-01-11T06:35:01.483Z,9.00
2023-01-11T06:39:03.829Z,9.00
2023-01-11T06:43:05.956Z,9.04
2023-01-11T06:47:07.479Z,9.04
2023-01-11T06:51:12.486Z,9.06
2023-01-11T06:55:14.027Z,9.10
2023-01-11T06:59:15.822Z,9.13
2023-01-11T07:03:17.737Z,9.16
2023-01-11T07:07:19.346Z,9.19
2023-01-11T07:11:20.940Z,9.20
2023-01-11T07:15:22.895Z,9.24
2023-01-11T07:19:24.610Z,9.27
2023-01-11T07:23:26.263Z,9.31
2023-01-11T07:27:27.801Z,9.34
2023-01-11T07:31:29.474Z,9.37
2023-01-11T07:35:31.039Z,9.37
2023-01-11T07:39:42.705Z,9.40
2023-01-11T07:43:45.110Z,9.41
2023-01-11T07:47:51.030Z,9.42
2023-01-11T07:51:52.548Z,9.44
2023-01-11T07:55:57.109Z,9.48
2023-01-11T07:59:58.658Z,9.48
2023-01-11T08:04:00.184Z,9.49
2023-01-11T08:08:02.034Z,9.50
2023-01-11T08:12:22.449Z,9.49
2023-01-11T08:16:24.126Z,9.52
2023-01-11T08:20:27.053Z,9.53
2023-01-11T08:24:28.663Z,9.55
2023-01-11T08:28:30.246Z,9.55
2023-01-11T08:32:31.829Z,9.56
2023-01-11T08:36:33.394Z,9.59
2023-01-11T08:40:35.190Z,9.59
2023-01-11T08:44:36.815Z,9.59
2023-01-11T08:48:38.399Z,9.60
2023-01-11T08:52:40.794Z,9.62
2023-01-11T08:56:42.382Z,9.65
2023-01-11T09:00:43.958Z,9.65
2023-01-11T09:04:45.567Z,9.67
2023-01-11T09:08:47.779Z,9.67
2023-01-11T09:12:49.328Z,9.70
2023-01-11T09:16:52.038Z,9.73
2023-01-11T09:20:54.702Z,9.74
2023-01-11T09:24:58.925Z,9.74
2023-01-11T09:29:00.642Z,9.77
2023-01-11T09:33:04.847Z,9.78
2023-01-11T09:37:07.156Z,9.81
2023-01-11T09:41:43.190Z,9.80
2023-01-11T09:45:46.855Z,9.83
2023-01-11T09:49:57.203Z,9.86
2023-01-11T09:54:01.910Z,9.88
2023-01-11T09:58:09.560Z,9.91
2023-01-11T10:02:36.156Z,9.93
2023-01-11T10:06:52.994Z,9.96
2023-01-11T10:18:36.990Z,10.04
2023-01-11T10:20:37.809Z,10.06
2023-01-11T10:24:48.334Z,10.07
2023-01-11T10:29:16.519Z,10.10
2023-01-11T10:34:01.217Z,10.16
2023-01-11T10:38:29.347Z,10.22
2023-01-11T10:42:40.535Z,10.25
2023-01-11T10:46:49.978Z,10.28
2023-01-11T10:51:03.199Z,10.32
2023-01-11T10:55:12.974Z,10.38
2023-01-11T10:59:39.355Z,10.39
2023-01-11T11:04:01.448Z,10.42
2023-01-11T11:08:26.630Z,10.42
2023-01-11T11:12:34.809Z,10.43
2023-01-11T11:16:41.285Z,10.46
2023-01-11T11:20:44.174Z,10.43
2023-01-11T11:24:57.877Z,10.44
2023-01-11T11:29:02.493Z,10.51
2023-01-11T11:33:36.467Z,10.58
2023-01-11T11:37:44.477Z,10.66
2023-01-11T11:41:48.905Z,10.76
2023-01-11T11:45:52.848Z,10.80
2023-01-11T11:50:42.689Z,10.84
2023-01-11T11:54:56.621Z,10.84
2023-01-11T11:58:59.559Z,10.86
2023-01-11T12:03:11.207Z,10.86
2023-01-11T12:07:18.208Z,10.86
2023-01-11T12:11:26.235Z,10.81
2023-01-11T12:15:30.099Z,10.83
2023-01-11T12:19:43.002Z,10.83
2023-01-11T12:23:44.878Z,10.84
2023-01-11T12:27:49.377Z,10.84
2023-01-11T12:32:12.368Z,10.81
2023-01-11T12:36:42.934Z,10.83
2023-01-11T12:41:06.861Z,10.86
2023-01-11T12:45:30.983Z,10.84
2023-01-11T12:50:17.466Z,10.84
2023-01-11T12:54:36.889Z,10.83
2023-01-11T12:58:44.421Z,10.91
2023-01-11T13:03:05.593Z,11.05
2023-01-11T13:07:07.155Z,10.98
2023-01-11T13:11:36.023Z,10.91
2023-01-11T13:15:54.545Z,10.94
2023-01-11T13:20:17.714Z,11.01
2023-01-11T13:24:31.383Z,11.02
2023-01-11T13:28:37.955Z,11.06
2023-01-11T13:32:43.130Z,11.12
2023-01-11T13:36:51.674Z,11.17
2023-01-11T13:40:58.207Z,11.21
2023-01-11T13:45:07.563Z,11.27
2023-01-11T13:49:45.433Z,11.31
2023-01-11T13:54:03.098Z,11.31
2023-01-11T13:58:20.725Z,11.30
2023-01-11T14:02:42.396Z,11.27
2023-01-11T14:07:13.553Z,11.28
2023-01-11T14:11:41.496Z,11.24
2023-01-11T14:16:02.082Z,11.20
2023-01-11T14:20:17.788Z,11.16
2023-01-11T14:24:21.370Z,11.12
2023-01-11T14:29:06.357Z,11.11
2023-01-11T14:33:29.672Z,11.12
2023-01-11T14:37:53.263Z,11.12
2023-01-11T14:42:35.333Z,11.08
2023-01-11T14:46:55.788Z,11.08
2023-01-11T14:51:22.140Z,11.06
2023-01-11T14:55:27.641Z,10.99
2023-01-11T14:59:37.014Z,10.95
2023-01-11T15:03:44.089Z,10.93
2023-01-11T15:07:50.698Z,10.87
2023-01-11T15:11:52.314Z,10.86
2023-01-11T15:16:26.723Z,10.83
2023-01-11T15:20:28.678Z,10.80
2023-01-11T15:24:43.546Z,10.80
2023-01-11T15:28:57.593Z,10.76
2023-01-11T15:33:48.188Z,10.73
2023-01-11T15:37:57.412Z,10.66
2023-01-11T15:42:13.626Z,10.63
2023-01-11T15:46:52.436Z,10.58
2023-01-11T15:51:19.919Z,10.54
2023-01-11T15:56:02.198Z,10.47
2023-01-11T16:00:06.781Z,10.44
2023-01-11T16:04:14.193Z,10.42
2023-01-11T16:08:31.956Z,10.36
2023-01-11T16:12:50.251Z,10.38
2023-01-11T16:16:55.742Z,10.36
2023-01-11T16:21:17.968Z,10.35
2023-01-11T16:25:21.310Z,10.35
2023-01-11T16:29:28.825Z,10.32
2023-01-11T16:33:32.854Z,10.29
2023-01-11T16:37:42.471Z,10.26
2023-01-11T16:41:43.986Z,10.24
2023-01-11T16:45:48.708Z,10.18
2023-01-11T16:50:21.230Z,10.14
2023-01-11T16:54:27.306Z,10.10
2023-01-11T16:58:31.954Z,10.07
2023-01-11T17:02:43.157Z,9.99
2023-01-11T17:06:44.826Z,9.96
2023-01-11T17:10:52.682Z,9.95
2023-01-11T17:15:11.110Z,9.92
2023-01-11T17:19:18.405Z,9.86
2023-01-11T17:23:20.305Z,9.81
2023-01-11T17:27:40.596Z,9.81
2023-01-11T17:31:42.508Z,9.78
2023-01-11T17:35:44.275Z,9.77
2023-01-11T17:39:49.872Z,9.75
2023-01-11T17:44:10.074Z,9.71
2023-01-11T17:48:14.009Z,9.63
2023-01-11T17:52:23.713Z,9.58
2023-01-11T17:56:34.687Z,9.52
2023-01-11T18:00:37.135Z,9.44
2023-01-11T18:04:39.205Z,9.38
2023-01-11T18:08:47.347Z,9.32
2023-01-11T18:12:50.413Z,9.24
2023-01-11T18:17:02.625Z,9.19
2023-01-11T18:21:04.346Z,9.17
2023-01-11T18:25:22.812Z,9.15
2023-01-11T18:29:36.426Z,9.13
2023-01-11T18:33:40.421Z,9.12
2023-01-11T18:37:41.945Z,9.13
2023-01-11T18:42:02.331Z,9.17
2023-01-11T18:46:04.072Z,9.19
2023-01-11T18:50:06.665Z,9.20
2023-01-11T18:54:15.623Z,9.23
2023-01-11T18:58:17.272Z,9.23
2023-01-11T19:02:26.610Z,9.22
2023-01-11T19:06:28.533Z,9.20
2023-01-11T19:10:30.107Z,9.19
2023-01-11T19:14:31.949Z,9.15
2023-01-11T19:18:35.328Z,9.19
2023-01-11T19:22:37.872Z,9.13
2023-01-11T19:26:39.464Z,9.12
2023-01-11T19:30:41.106Z,9.04
2023-01-11T19:34:45.480Z,9.01
2023-01-11T19:38:47.472Z,8.98
2023-01-11T19:42:52.201Z,8.96
2023-01-11T19:47:09.637Z,8.98
2023-01-11T19:51:12.799Z,8.98
2023-01-11T19:55:14.528Z,8.97
2023-01-11T19:59:16.231Z,8.96
2023-01-11T20:03:17.870Z,8.96
2023-01-11T20:07:20.271Z,8.96
2023-01-11T20:11:22.224Z,8.94
2023-01-11T20:15:24.041Z,8.94
2023-01-11T20:19:26.161Z,8.91
2023-01-11T20:23:30.694Z,8.96
2023-01-11T20:27:34.001Z,8.97
2023-01-11T20:31:36.171Z,8.96
2023-01-11T20:35:37.902Z,8.88
2023-01-11T20:39:39.521Z,8.85
2023-01-11T20:43:41.196Z,8.80
2023-01-11T20:47:42.978Z,8.78
2023-01-11T20:51:46.866Z,8.76
2023-01-11T20:55:48.489Z,8.73
2023-01-11T20:59:50.244Z,8.67
2023-01-11T21:03:52.377Z,8.64
2023-01-11T21:07:53.936Z,8.61
2023-01-11T21:11:55.523Z,8.58
2023-01-11T21:15:57.305Z,8.57
2023-01-11T21:19:58.911Z,8.54
2023-01-11T21:24:03.266Z,8.50
2023-01-11T21:28:04.931Z,8.49
2023-01-11T21:32:06.478Z,8.47
2023-01-11T21:36:12.626Z,8.46
2023-01-11T21:40:14.840Z,8.46
2023-01-11T21:44:17.942Z,8.46
2023-01-11T21:48:19.466Z,8.46
2023-01-11T21:52:21.053Z,8.46
2023-01-11T21:56:22.825Z,8.45
2023-01-11T22:00:24.432Z,8.43
2023-01-11T22:04:26.075Z,8.43
2023-01-11T22:08:27.774Z,8.43
2023-01-11T22:12:29.339Z,8.43
2023-01-11T22:16:32.179Z,8.46
2023-01-11T22:20:34.330Z,8.47
2023-01-11T22:24:35.937Z,8.43
2023-01-11T22:28:57.768Z,8.42
2023-01-11T22:33:00.339Z,8.45
2023-01-11T22:37:02.046Z,8.47
2023-01-11T22:41:03.603Z,8.52
2023-01-11T22:45:07.586Z,8.50
2023-01-11T22:49:09.560Z,8.52
2023-01-11T22:53:11.137Z,8.50
2023-01-11T22:57:12.686Z,8.46
2023-01-11T23:01:15.980Z,8.50
2023-01-11T23:05:17.546Z,8.52
2023-01-11T23:09:19.187Z,8.50
2023-01-11T23:19:18.758Z,8.46
2023-01-11T23:23:20.398Z,8.45
2023-01-11T23:27:21.918Z,8.46
2023-01-11T23:31:25.117Z,8.45
2023-01-11T23:35:26.737Z,8.42
2023-01-11T23:39:28.283Z,8.40
2023-01-11T23:43:29.782Z,8.37
2023-01-11T23:47:31.832Z,8.37
2023-01-11T23:51:34.675Z,8.36
2023-01-11T23:55:36.211Z,8.37
2023-01-11T23:59:38.994Z,8.40
